sensor_id;sensor_type;location;lat;lon;timestamp;temperature;humidity
38436;DHT22;24220;48.168;14.024;2023-07-13T00:00:31;24.00;76.80
38436;DHT22;24220;48.168;14.024;2023-07-13T00:03:02;24.00;77.10
38436;DHT22;24220;48.168;14.024;2023-07-13T00:05:29;24.00;77.40
38436;DHT22;24220;48.168;14.024;2023-07-13T00:07:57;23.90;77.60
38436;DHT22;24220;48.168;14.024;2023-07-13T00:10:24;23.90;77.60
38436;DHT22;24220;48.168;14.024;2023-07-13T00:12:51;23.90;78.00
38436;DHT22;24220;48.168;14.024;2023-07-13T00:15:24;23.90;78.10
38436;DHT22;24220;48.168;14.024;2023-07-13T00:17:54;23.90;78.90
38436;DHT22;24220;48.168;14.024;2023-07-13T00:20:23;23.90;78.60
38436;DHT22;24220;48.168;14.024;2023-07-13T00:22:52;23.90;78.70
38436;DHT22;24220;48.168;14.024;2023-07-13T00:25:22;23.90;78.80
38436;DHT22;24220;48.168;14.024;2023-07-13T00:27:55;23.90;78.90
38436;DHT22;24220;48.168;14.024;2023-07-13T00:30:24;23.90;79.00
38436;DHT22;24220;48.168;14.024;2023-07-13T00:32:55;23.90;79.30
38436;DHT22;24220;48.168;14.024;2023-07-13T00:35:43;23.90;79.90
38436;DHT22;24220;48.168;14.024;2023-07-13T00:38:12;23.80;79.50
38436;DHT22;24220;48.168;14.024;2023-07-13T00:40:41;23.90;80.20
38436;DHT22;24220;48.168;14.024;2023-07-13T00:43:19;23.80;80.20
38436;DHT22;24220;48.168;14.024;2023-07-13T00:48:18;23.80;80.10
38436;DHT22;24220;48.168;14.024;2023-07-13T00:50:53;23.80;80.30
38436;DHT22;24220;48.168;14.024;2023-07-13T00:53:21;23.80;80.60
38436;DHT22;24220;48.168;14.024;2023-07-13T00:55:54;23.80;80.40
38436;DHT22;24220;48.168;14.024;2023-07-13T00:58:23;23.80;80.50
38436;DHT22;24220;48.168;14.024;2023-07-13T01:00:51;23.70;79.50
38436;DHT22;24220;48.168;14.024;2023-07-13T01:03:19;23.70;80.10
38436;DHT22;24220;48.168;14.024;2023-07-13T01:05:48;23.70;80.30
38436;DHT22;24220;48.168;14.024;2023-07-13T01:08:22;23.60;80.70
38436;DHT22;24220;48.168;14.024;2023-07-13T01:10:56;23.60;80.70
38436;DHT22;24220;48.168;14.024;2023-07-13T01:13:24;23.60;81.20
38436;DHT22;24220;48.168;14.024;2023-07-13T01:15:53;23.60;80.90
38436;DHT22;24220;48.168;14.024;2023-07-13T01:18:24;23.60;81.10
38436;DHT22;24220;48.168;14.024;2023-07-13T01:21:01;23.60;81.30
38436;DHT22;24220;48.168;14.024;2023-07-13T01:23:29;23.60;81.70
38436;DHT22;24220;48.168;14.024;2023-07-13T01:25:58;23.60;81.70
38436;DHT22;24220;48.168;14.024;2023-07-13T01:28:26;23.50;81.90
38436;DHT22;24220;48.168;14.024;2023-07-13T01:30:56;23.50;82.30
38436;DHT22;24220;48.168;14.024;2023-07-13T01:33:25;23.50;82.60
38436;DHT22;24220;48.168;14.024;2023-07-13T01:35:52;23.50;82.70
38436;DHT22;24220;48.168;14.024;2023-07-13T01:38:21;23.50;82.60
38436;DHT22;24220;48.168;14.024;2023-07-13T01:40:52;23.50;82.90
38436;DHT22;24220;48.168;14.024;2023-07-13T01:43:20;23.50;82.80
38436;DHT22;24220;48.168;14.024;2023-07-13T01:45:48;23.50;82.80
38436;DHT22;24220;48.168;14.024;2023-07-13T01:48:15;23.50;82.90
38436;DHT22;24220;48.168;14.024;2023-07-13T01:50:43;23.50;83.10
38436;DHT22;24220;48.168;14.024;2023-07-13T01:53:10;23.50;83.00
38436;DHT22;24220;48.168;14.024;2023-07-13T01:55:41;23.50;83.20
38436;DHT22;24220;48.168;14.024;2023-07-13T01:58:09;23.50;83.40
38436;DHT22;24220;48.168;14.024;2023-07-13T02:00:36;23.50;83.30
38436;DHT22;24220;48.168;14.024;2023-07-13T02:03:03;23.50;83.50
38436;DHT22;24220;48.168;14.024;2023-07-13T02:05:34;23.50;83.50
38436;DHT22;24220;48.168;14.024;2023-07-13T02:08:02;23.50;83.40
38436;DHT22;24220;48.168;14.024;2023-07-13T02:10:29;23.50;83.30
38436;DHT22;24220;48.168;14.024;2023-07-13T02:12:59;23.40;83.40
38436;DHT22;24220;48.168;14.024;2023-07-13T02:15:26;23.40;83.20
38436;DHT22;24220;48.168;14.024;2023-07-13T02:17:53;23.50;83.40
38436;DHT22;24220;48.168;14.024;2023-07-13T02:20:21;23.50;83.40
38436;DHT22;24220;48.168;14.024;2023-07-13T02:22:48;23.40;83.30
38436;DHT22;24220;48.168;14.024;2023-07-13T02:25:16;23.50;83.60
38436;DHT22;24220;48.168;14.024;2023-07-13T02:27:43;23.40;83.60
38436;DHT22;24220;48.168;14.024;2023-07-13T02:30:11;23.40;83.50
38436;DHT22;24220;48.168;14.024;2023-07-13T02:32:38;23.40;83.50
38436;DHT22;24220;48.168;14.024;2023-07-13T02:35:05;23.40;83.50
38436;DHT22;24220;48.168;14.024;2023-07-13T02:37:33;23.40;83.90
38436;DHT22;24220;48.168;14.024;2023-07-13T02:40:05;23.40;83.80
38436;DHT22;24220;48.168;14.024;2023-07-13T02:42:35;23.40;83.70
38436;DHT22;24220;48.168;14.024;2023-07-13T02:45:07;23.40;83.80
38436;DHT22;24220;48.168;14.024;2023-07-13T02:47:35;23.40;84.00
38436;DHT22;24220;48.168;14.024;2023-07-13T02:50:06;23.40;84.00
38436;DHT22;24220;48.168;14.024;2023-07-13T02:52:33;23.40;84.10
38436;DHT22;24220;48.168;14.024;2023-07-13T02:55:01;23.40;84.00
38436;DHT22;24220;48.168;14.024;2023-07-13T02:57:28;23.40;84.00
38436;DHT22;24220;48.168;14.024;2023-07-13T02:59:56;23.40;84.30
38436;DHT22;24220;48.168;14.024;2023-07-13T03:02:23;23.40;84.30
38436;DHT22;24220;48.168;14.024;2023-07-13T03:04:50;23.40;84.20
38436;DHT22;24220;48.168;14.024;2023-07-13T03:07:18;23.40;84.40
38436;DHT22;24220;48.168;14.024;2023-07-13T03:09:47;23.40;84.30
38436;DHT22;24220;48.168;14.024;2023-07-13T03:12:15;23.40;84.60
38436;DHT22;24220;48.168;14.024;2023-07-13T03:14:42;23.40;84.50
38436;DHT22;24220;48.168;14.024;2023-07-13T03:17:09;23.40;84.40
38436;DHT22;24220;48.168;14.024;2023-07-13T03:19:39;23.40;84.70
38436;DHT22;24220;48.168;14.024;2023-07-13T03:22:07;23.40;84.80
38436;DHT22;24220;48.168;14.024;2023-07-13T03:24:37;23.30;84.70
38436;DHT22;24220;48.168;14.024;2023-07-13T03:27:06;23.30;84.70
38436;DHT22;24220;48.168;14.024;2023-07-13T03:29:36;23.30;84.70
38436;DHT22;24220;48.168;14.024;2023-07-13T03:32:04;23.30;84.50
38436;DHT22;24220;48.168;14.024;2023-07-13T03:34:31;23.30;84.30
38436;DHT22;24220;48.168;14.024;2023-07-13T03:36:59;23.30;84.20
38436;DHT22;24220;48.168;14.024;2023-07-13T03:39:27;23.30;84.40
38436;DHT22;24220;48.168;14.024;2023-07-13T03:41:55;23.30;84.30
38436;DHT22;24220;48.168;14.024;2023-07-13T03:44:25;23.30;84.20
38436;DHT22;24220;48.168;14.024;2023-07-13T03:46:52;23.30;84.50
38436;DHT22;24220;48.168;14.024;2023-07-13T03:49:20;23.30;84.40
38436;DHT22;24220;48.168;14.024;2023-07-13T03:51:49;23.30;84.70
38436;DHT22;24220;48.168;14.024;2023-07-13T03:54:20;23.30;84.80
38436;DHT22;24220;48.168;14.024;2023-07-13T03:56:47;23.30;84.70
38436;DHT22;24220;48.168;14.024;2023-07-13T03:59:14;23.30;84.80
38436;DHT22;24220;48.168;14.024;2023-07-13T04:01:43;23.30;84.70
38436;DHT22;24220;48.168;14.024;2023-07-13T04:04:11;23.30;85.10
38436;DHT22;24220;48.168;14.024;2023-07-13T04:06:38;23.30;84.90
38436;DHT22;24220;48.168;14.024;2023-07-13T04:09:08;23.30;84.80
38436;DHT22;24220;48.168;14.024;2023-07-13T04:11:35;23.30;84.80
38436;DHT22;24220;48.168;14.024;2023-07-13T04:14:05;23.20;84.90
38436;DHT22;24220;48.168;14.024;2023-07-13T04:16:33;23.30;84.90
38436;DHT22;24220;48.168;14.024;2023-07-13T04:19:00;23.20;84.70
38436;DHT22;24220;48.168;14.024;2023-07-13T04:21:30;23.20;84.50
38436;DHT22;24220;48.168;14.024;2023-07-13T04:23:58;23.20;84.60
38436;DHT22;24220;48.168;14.024;2023-07-13T04:26:29;23.20;84.70
38436;DHT22;24220;48.168;14.024;2023-07-13T04:28:59;23.20;84.80
38436;DHT22;24220;48.168;14.024;2023-07-13T04:31:29;23.20;84.80
38436;DHT22;24220;48.168;14.024;2023-07-13T04:33:56;23.20;84.90
38436;DHT22;24220;48.168;14.024;2023-07-13T04:36:24;23.20;84.70
38436;DHT22;24220;48.168;14.024;2023-07-13T04:38:54;23.20;84.60
38436;DHT22;24220;48.168;14.024;2023-07-13T04:41:24;23.20;84.70
38436;DHT22;24220;48.168;14.024;2023-07-13T04:43:51;23.20;84.70
38436;DHT22;24220;48.168;14.024;2023-07-13T04:46:22;23.20;84.70
38436;DHT22;24220;48.168;14.024;2023-07-13T04:48:50;23.20;84.80
38436;DHT22;24220;48.168;14.024;2023-07-13T04:51:20;23.20;84.80
38436;DHT22;24220;48.168;14.024;2023-07-13T04:53:48;23.20;84.80
38436;DHT22;24220;48.168;14.024;2023-07-13T04:56:17;23.20;84.70
38436;DHT22;24220;48.168;14.024;2023-07-13T04:58:44;23.20;85.00
38436;DHT22;24220;48.168;14.024;2023-07-13T05:01:14;23.20;84.70
38436;DHT22;24220;48.168;14.024;2023-07-13T05:03:42;23.20;84.50
38436;DHT22;24220;48.168;14.024;2023-07-13T05:06:09;23.10;84.60
38436;DHT22;24220;48.168;14.024;2023-07-13T05:08:41;23.10;84.40
38436;DHT22;24220;48.168;14.024;2023-07-13T05:11:09;23.10;84.40
38436;DHT22;24220;48.168;14.024;2023-07-13T05:13:39;23.10;84.10
38436;DHT22;24220;48.168;14.024;2023-07-13T05:16:07;23.20;84.20
38436;DHT22;24220;48.168;14.024;2023-07-13T05:18:38;23.10;84.30
38436;DHT22;24220;48.168;14.024;2023-07-13T05:21:10;23.10;84.40
38436;DHT22;24220;48.168;14.024;2023-07-13T05:23:39;23.10;84.40
38436;DHT22;24220;48.168;14.024;2023-07-13T05:26:09;23.10;84.60
38436;DHT22;24220;48.168;14.024;2023-07-13T05:28:36;23.10;85.00
38436;DHT22;24220;48.168;14.024;2023-07-13T05:31:06;23.10;85.40
38436;DHT22;24220;48.168;14.024;2023-07-13T05:33:34;23.20;85.40
38436;DHT22;24220;48.168;14.024;2023-07-13T05:36:02;23.20;85.60
38436;DHT22;24220;48.168;14.024;2023-07-13T05:38:29;23.20;85.70
38436;DHT22;24220;48.168;14.024;2023-07-13T05:40:57;23.20;86.10
38436;DHT22;24220;48.168;14.024;2023-07-13T05:43:31;23.20;86.10
38436;DHT22;24220;48.168;14.024;2023-07-13T05:46:02;23.20;86.00
38436;DHT22;24220;48.168;14.024;2023-07-13T05:48:29;23.20;86.10
38436;DHT22;24220;48.168;14.024;2023-07-13T05:50:57;23.20;86.00
38436;DHT22;24220;48.168;14.024;2023-07-13T05:53:24;23.20;86.10
38436;DHT22;24220;48.168;14.024;2023-07-13T05:55:54;23.20;86.10
38436;DHT22;24220;48.168;14.024;2023-07-13T05:58:22;23.20;86.30
38436;DHT22;24220;48.168;14.024;2023-07-13T06:01:01;23.20;86.20
38436;DHT22;24220;48.168;14.024;2023-07-13T06:03:29;23.20;86.20
38436;DHT22;24220;48.168;14.024;2023-07-13T06:05:57;23.20;86.00
38436;DHT22;24220;48.168;14.024;2023-07-13T06:08:24;23.20;86.20
38436;DHT22;24220;48.168;14.024;2023-07-13T06:10:54;23.20;86.30
38436;DHT22;24220;48.168;14.024;2023-07-13T06:13:23;23.20;86.20
38436;DHT22;24220;48.168;14.024;2023-07-13T06:15:51;23.20;86.40
38436;DHT22;24220;48.168;14.024;2023-07-13T06:18:20;23.20;86.50
38436;DHT22;24220;48.168;14.024;2023-07-13T06:20:48;23.20;86.50
38436;DHT22;24220;48.168;14.024;2023-07-13T06:23:17;23.20;86.70
38436;DHT22;24220;48.168;14.024;2023-07-13T06:25:44;23.30;86.60
38436;DHT22;24220;48.168;14.024;2023-07-13T06:28:12;23.20;86.20
38436;DHT22;24220;48.168;14.024;2023-07-13T06:30:39;23.20;86.50
38436;DHT22;24220;48.168;14.024;2023-07-13T06:33:06;23.20;86.40
38436;DHT22;24220;48.168;14.024;2023-07-13T06:35:34;23.20;86.60
38436;DHT22;24220;48.168;14.024;2023-07-13T06:38:01;23.30;86.70
38436;DHT22;24220;48.168;14.024;2023-07-13T06:40:31;23.30;87.00
38436;DHT22;24220;48.168;14.024;2023-07-13T06:42:59;23.30;86.90
38436;DHT22;24220;48.168;14.024;2023-07-13T06:45:26;23.30;87.00
38436;DHT22;24220;48.168;14.024;2023-07-13T06:47:56;23.30;87.10
38436;DHT22;24220;48.168;14.024;2023-07-13T06:50:23;23.30;87.00
38436;DHT22;24220;48.168;14.024;2023-07-13T06:52:51;23.30;87.20
38436;DHT22;24220;48.168;14.024;2023-07-13T06:55:22;23.30;87.20
38436;DHT22;24220;48.168;14.024;2023-07-13T06:57:50;23.40;87.60
38436;DHT22;24220;48.168;14.024;2023-07-13T07:00:17;23.40;87.50
38436;DHT22;24220;48.168;14.024;2023-07-13T07:02:45;23.40;87.60
38436;DHT22;24220;48.168;14.024;2023-07-13T07:05:12;23.40;87.50
38436;DHT22;24220;48.168;14.024;2023-07-13T07:07:40;23.40;87.20
38436;DHT22;24220;48.168;14.024;2023-07-13T07:10:07;23.50;87.40
38436;DHT22;24220;48.168;14.024;2023-07-13T07:12:37;23.60;86.90
38436;DHT22;24220;48.168;14.024;2023-07-13T07:15:05;23.60;87.00
38436;DHT22;24220;48.168;14.024;2023-07-13T07:17:32;23.60;86.60
38436;DHT22;24220;48.168;14.024;2023-07-13T07:20:00;23.60;86.80
38436;DHT22;24220;48.168;14.024;2023-07-13T07:22:30;23.70;86.60
38436;DHT22;24220;48.168;14.024;2023-07-13T07:24:58;23.70;86.00
38436;DHT22;24220;48.168;14.024;2023-07-13T07:27:25;23.70;85.20
38436;DHT22;24220;48.168;14.024;2023-07-13T07:29:55;23.80;85.20
38436;DHT22;24220;48.168;14.024;2023-07-13T07:32:29;23.90;84.60
38436;DHT22;24220;48.168;14.024;2023-07-13T07:35:19;23.90;84.30
38436;DHT22;24220;48.168;14.024;2023-07-13T07:37:49;23.90;84.70
38436;DHT22;24220;48.168;14.024;2023-07-13T07:40:18;23.90;84.70
38436;DHT22;24220;48.168;14.024;2023-07-13T07:42:51;24.00;83.90
38436;DHT22;24220;48.168;14.024;2023-07-13T07:45:21;24.00;83.70
38436;DHT22;24220;48.168;14.024;2023-07-13T07:47:51;24.00;83.70
38436;DHT22;24220;48.168;14.024;2023-07-13T07:50:18;24.00;84.00
38436;DHT22;24220;48.168;14.024;2023-07-13T07:52:47;24.10;83.00
38436;DHT22;24220;48.168;14.024;2023-07-13T07:55:16;24.10;82.00
38436;DHT22;24220;48.168;14.024;2023-07-13T07:57:46;24.10;81.80
38436;DHT22;24220;48.168;14.024;2023-07-13T08:00:17;24.20;81.70
38436;DHT22;24220;48.168;14.024;2023-07-13T08:02:47;24.20;80.90
38436;DHT22;24220;48.168;14.024;2023-07-13T08:05:20;24.20;81.20
38436;DHT22;24220;48.168;14.024;2023-07-13T08:08:05;24.20;80.90
38436;DHT22;24220;48.168;14.024;2023-07-13T08:10:37;24.20;81.20
38436;DHT22;24220;48.168;14.024;2023-07-13T08:13:04;24.30;81.20
38436;DHT22;24220;48.168;14.024;2023-07-13T08:15:35;24.30;81.20
38436;DHT22;24220;48.168;14.024;2023-07-13T08:18:03;24.30;81.00
38436;DHT22;24220;48.168;14.024;2023-07-13T08:20:31;24.30;80.80
38436;DHT22;24220;48.168;14.024;2023-07-13T08:22:58;24.30;80.30
38436;DHT22;24220;48.168;14.024;2023-07-13T08:25:25;24.40;80.00
38436;DHT22;24220;48.168;14.024;2023-07-13T08:27:53;24.40;79.90
38436;DHT22;24220;48.168;14.024;2023-07-13T08:30:23;24.40;79.40
38436;DHT22;24220;48.168;14.024;2023-07-13T08:32:52;24.40;78.90
38436;DHT22;24220;48.168;14.024;2023-07-13T08:35:20;24.40;78.70
38436;DHT22;24220;48.168;14.024;2023-07-13T08:37:47;24.40;78.50
38436;DHT22;24220;48.168;14.024;2023-07-13T08:40:15;24.40;78.30
38436;DHT22;24220;48.168;14.024;2023-07-13T08:42:46;24.40;78.40
38436;DHT22;24220;48.168;14.024;2023-07-13T08:45:24;24.30;79.20
38436;DHT22;24220;48.168;14.024;2023-07-13T08:48:13;24.40;78.90
38436;DHT22;24220;48.168;14.024;2023-07-13T08:53:41;24.40;78.20
38436;DHT22;24220;48.168;14.024;2023-07-13T08:56:22;24.40;78.20
38436;DHT22;24220;48.168;14.024;2023-07-13T08:58:55;24.40;77.00
38436;DHT22;24220;48.168;14.024;2023-07-13T09:01:30;24.40;77.10
38436;DHT22;24220;48.168;14.024;2023-07-13T09:04:20;24.40;76.80
38436;DHT22;24220;48.168;14.024;2023-07-13T09:06:55;24.40;76.80
38436;DHT22;24220;48.168;14.024;2023-07-13T09:15:29;24.40;76.50
38436;DHT22;24220;48.168;14.024;2023-07-13T09:18:26;24.40;76.60
38436;DHT22;24220;48.168;14.024;2023-07-13T09:21:00;24.50;77.00
38436;DHT22;24220;48.168;14.024;2023-07-13T09:23:32;24.50;76.60
38436;DHT22;24220;48.168;14.024;2023-07-13T09:28:43;24.50;76.30
38436;DHT22;24220;48.168;14.024;2023-07-13T09:31:34;24.50;75.80
38436;DHT22;24220;48.168;14.024;2023-07-13T09:34:14;24.50;75.40
38436;DHT22;24220;48.168;14.024;2023-07-13T09:36:44;24.50;75.70
38436;DHT22;24220;48.168;14.024;2023-07-13T09:42:07;24.60;75.00
38436;DHT22;24220;48.168;14.024;2023-07-13T09:44:55;24.60;75.40
38436;DHT22;24220;48.168;14.024;2023-07-13T09:47:28;24.60;76.30
38436;DHT22;24220;48.168;14.024;2023-07-13T09:49:59;24.60;76.40
38436;DHT22;24220;48.168;14.024;2023-07-13T09:52:47;24.60;75.80
38436;DHT22;24220;48.168;14.024;2023-07-13T09:55:34;24.60;76.80
38436;DHT22;24220;48.168;14.024;2023-07-13T09:58:20;24.60;76.70
38436;DHT22;24220;48.168;14.024;2023-07-13T10:01:07;24.60;77.40
38436;DHT22;24220;48.168;14.024;2023-07-13T10:03:37;24.60;77.00
38436;DHT22;24220;48.168;14.024;2023-07-13T10:06:16;24.50;78.00
38436;DHT22;24220;48.168;14.024;2023-07-13T10:08:45;24.50;78.50
38436;DHT22;24220;48.168;14.024;2023-07-13T10:13:57;24.50;78.80
38436;DHT22;24220;48.168;14.024;2023-07-13T10:16:29;24.40;79.50
38436;DHT22;24220;48.168;14.024;2023-07-13T10:19:10;24.50;79.70
38436;DHT22;24220;48.168;14.024;2023-07-13T10:21:49;24.40;80.40
38436;DHT22;24220;48.168;14.024;2023-07-13T10:24:24;24.40;80.20
38436;DHT22;24220;48.168;14.024;2023-07-13T10:27:17;24.40;80.60
38436;DHT22;24220;48.168;14.024;2023-07-13T10:29:51;24.40;80.70
38436;DHT22;24220;48.168;14.024;2023-07-13T10:32:23;24.40;80.40
38436;DHT22;24220;48.168;14.024;2023-07-13T10:34:51;24.40;79.90
38436;DHT22;24220;48.168;14.024;2023-07-13T10:37:23;24.40;79.90
38436;DHT22;24220;48.168;14.024;2023-07-13T10:39:53;24.40;80.30
38436;DHT22;24220;48.168;14.024;2023-07-13T10:42:30;24.40;80.20
38436;DHT22;24220;48.168;14.024;2023-07-13T10:44:59;24.40;80.10
38436;DHT22;24220;48.168;14.024;2023-07-13T10:47:27;24.40;79.90
38436;DHT22;24220;48.168;14.024;2023-07-13T10:49:58;24.40;79.40
38436;DHT22;24220;48.168;14.024;2023-07-13T10:52:47;24.40;78.80
38436;DHT22;24220;48.168;14.024;2023-07-13T11:01:02;24.40;78.40
38436;DHT22;24220;48.168;14.024;2023-07-13T11:03:32;24.40;78.40
38436;DHT22;24220;48.168;14.024;2023-07-13T11:06:17;24.40;78.40
38436;DHT22;24220;48.168;14.024;2023-07-13T11:09:33;24.40;77.60
38436;DHT22;24220;48.168;14.024;2023-07-13T11:12:03;24.40;77.50
38436;DHT22;24220;48.168;14.024;2023-07-13T11:14:36;24.50;76.90
38436;DHT22;24220;48.168;14.024;2023-07-13T11:27:51;24.50;74.90
38436;DHT22;24220;48.168;14.024;2023-07-13T11:30:24;24.40;75.50
38436;DHT22;24220;48.168;14.024;2023-07-13T11:38:43;24.40;76.30
38436;DHT22;24220;48.168;14.024;2023-07-13T11:41:31;24.40;76.30
38436;DHT22;24220;48.168;14.024;2023-07-13T11:44:06;24.40;76.70
38436;DHT22;24220;48.168;14.024;2023-07-13T11:46:34;24.50;76.50
38436;DHT22;24220;48.168;14.024;2023-07-13T11:49:05;24.50;76.50
38436;DHT22;24220;48.168;14.024;2023-07-13T11:51:36;24.50;75.80
38436;DHT22;24220;48.168;14.024;2023-07-13T11:54:10;24.50;75.50
38436;DHT22;24220;48.168;14.024;2023-07-13T11:56:39;24.50;75.20
38436;DHT22;24220;48.168;14.024;2023-07-13T11:59:11;24.50;74.90
38436;DHT22;24220;48.168;14.024;2023-07-13T12:01:46;24.50;74.70
38436;DHT22;24220;48.168;14.024;2023-07-13T12:04:31;24.60;75.20
38436;DHT22;24220;48.168;14.024;2023-07-13T12:07:11;24.60;75.50
38436;DHT22;24220;48.168;14.024;2023-07-13T12:09:41;24.70;75.40
38436;DHT22;24220;48.168;14.024;2023-07-13T12:12:18;24.80;75.90
38436;DHT22;24220;48.168;14.024;2023-07-13T12:14:46;24.90;75.30
38436;DHT22;24220;48.168;14.024;2023-07-13T12:17:20;25.00;75.30
38436;DHT22;24220;48.168;14.024;2023-07-13T12:19:48;25.10;76.40
38436;DHT22;24220;48.168;14.024;2023-07-13T12:22:19;25.20;76.30
38436;DHT22;24220;48.168;14.024;2023-07-13T12:24:51;25.30;74.70
38436;DHT22;24220;48.168;14.024;2023-07-13T12:27:26;25.50;74.40
38436;DHT22;24220;48.168;14.024;2023-07-13T12:30:15;25.60;75.00
38436;DHT22;24220;48.168;14.024;2023-07-13T12:33:11;25.70;72.90
38436;DHT22;24220;48.168;14.024;2023-07-13T12:35:46;25.80;73.50
38436;DHT22;24220;48.168;14.024;2023-07-13T12:38:16;25.90;72.40
38436;DHT22;24220;48.168;14.024;2023-07-13T12:40:43;26.00;72.30
38436;DHT22;24220;48.168;14.024;2023-07-13T12:43:12;26.10;70.80
38436;DHT22;24220;48.168;14.024;2023-07-13T12:45:55;26.10;67.10
38436;DHT22;24220;48.168;14.024;2023-07-13T12:48:23;26.30;65.30
38436;DHT22;24220;48.168;14.024;2023-07-13T12:51:14;26.40;66.30
38436;DHT22;24220;48.168;14.024;2023-07-13T12:54:05;26.60;63.20
38436;DHT22;24220;48.168;14.024;2023-07-13T12:56:33;26.70;62.60
38436;DHT22;24220;48.168;14.024;2023-07-13T12:59:04;26.90;65.70
38436;DHT22;24220;48.168;14.024;2023-07-13T13:01:35;27.00;61.00
38436;DHT22;24220;48.168;14.024;2023-07-13T13:04:09;27.10;58.50
38436;DHT22;24220;48.168;14.024;2023-07-13T13:06:40;27.10;59.40
38436;DHT22;24220;48.168;14.024;2023-07-13T13:09:13;27.20;59.50
38436;DHT22;24220;48.168;14.024;2023-07-13T13:11:41;27.30;57.50
38436;DHT22;24220;48.168;14.024;2023-07-13T13:14:11;27.40;58.70
38436;DHT22;24220;48.168;14.024;2023-07-13T13:16:49;27.40;59.40
38436;DHT22;24220;48.168;14.024;2023-07-13T13:19:26;27.40;60.00
38436;DHT22;24220;48.168;14.024;2023-07-13T13:21:58;27.50;58.90
38436;DHT22;24220;48.168;14.024;2023-07-13T13:24:27;27.50;58.70
38436;DHT22;24220;48.168;14.024;2023-07-13T13:26:56;27.50;58.90
38436;DHT22;24220;48.168;14.024;2023-07-13T13:29:28;27.50;58.60
38436;DHT22;24220;48.168;14.024;2023-07-13T13:31:55;27.50;57.20
38436;DHT22;24220;48.168;14.024;2023-07-13T13:34:25;27.50;57.10
38436;DHT22;24220;48.168;14.024;2023-07-13T13:36:54;27.40;56.70
38436;DHT22;24220;48.168;14.024;2023-07-13T13:39:32;27.40;55.70
38436;DHT22;24220;48.168;14.024;2023-07-13T13:42:00;27.40;56.20
38436;DHT22;24220;48.168;14.024;2023-07-13T13:44:27;27.30;56.60
38436;DHT22;24220;48.168;14.024;2023-07-13T13:46:55;27.30;56.70
38436;DHT22;24220;48.168;14.024;2023-07-13T13:49:27;27.20;57.10
38436;DHT22;24220;48.168;14.024;2023-07-13T13:51:57;27.20;57.70
38436;DHT22;24220;48.168;14.024;2023-07-13T13:54:24;27.20;57.10
38436;DHT22;24220;48.168;14.024;2023-07-13T13:56:53;27.20;57.60
38436;DHT22;24220;48.168;14.024;2023-07-13T13:59:20;27.10;57.20
38436;DHT22;24220;48.168;14.024;2023-07-13T14:01:48;27.10;56.90
38436;DHT22;24220;48.168;14.024;2023-07-13T14:04:21;27.10;56.80
38436;DHT22;24220;48.168;14.024;2023-07-13T14:06:51;27.10;55.50
38436;DHT22;24220;48.168;14.024;2023-07-13T14:09:19;27.10;55.70
38436;DHT22;24220;48.168;14.024;2023-07-13T14:11:48;27.10;55.90
38436;DHT22;24220;48.168;14.024;2023-07-13T14:14:21;27.10;55.90
38436;DHT22;24220;48.168;14.024;2023-07-13T14:16:50;27.20;55.00
38436;DHT22;24220;48.168;14.024;2023-07-13T14:19:21;27.20;54.10
38436;DHT22;24220;48.168;14.024;2023-07-13T14:21:52;27.20;53.40
38436;DHT22;24220;48.168;14.024;2023-07-13T14:24:21;27.20;54.40
38436;DHT22;24220;48.168;14.024;2023-07-13T14:26:49;27.20;53.60
38436;DHT22;24220;48.168;14.024;2023-07-13T14:29:19;27.20;53.70
38436;DHT22;24220;48.168;14.024;2023-07-13T14:31:51;27.30;54.40
38436;DHT22;24220;48.168;14.024;2023-07-13T14:34:21;27.30;54.30
38436;DHT22;24220;48.168;14.024;2023-07-13T14:36:50;27.20;53.60
38436;DHT22;24220;48.168;14.024;2023-07-13T14:39:20;27.20;53.20
38436;DHT22;24220;48.168;14.024;2023-07-13T14:41:54;27.20;53.90
38436;DHT22;24220;48.168;14.024;2023-07-13T14:44:25;27.30;53.60
38436;DHT22;24220;48.168;14.024;2023-07-13T14:46:53;27.30;53.50
38436;DHT22;24220;48.168;14.024;2023-07-13T14:49:34;27.30;55.20
38436;DHT22;24220;48.168;14.024;2023-07-13T14:52:14;27.30;54.10
38436;DHT22;24220;48.168;14.024;2023-07-13T14:54:44;27.30;53.80
38436;DHT22;24220;48.168;14.024;2023-07-13T14:57:15;27.30;53.20
38436;DHT22;24220;48.168;14.024;2023-07-13T14:59:42;27.30;53.10
38436;DHT22;24220;48.168;14.024;2023-07-13T15:02:27;27.30;53.50
38436;DHT22;24220;48.168;14.024;2023-07-13T15:04:57;27.40;52.90
38436;DHT22;24220;48.168;14.024;2023-07-13T15:07:24;27.40;52.80
38436;DHT22;24220;48.168;14.024;2023-07-13T15:09:54;27.40;52.20
38436;DHT22;24220;48.168;14.024;2023-07-13T15:12:21;27.40;52.00
38436;DHT22;24220;48.168;14.024;2023-07-13T15:14:49;27.40;51.50
38436;DHT22;24220;48.168;14.024;2023-07-13T15:17:38;27.40;51.80
38436;DHT22;24220;48.168;14.024;2023-07-13T15:20:15;27.40;52.00
38436;DHT22;24220;48.168;14.024;2023-07-13T15:22:44;27.40;51.00
38436;DHT22;24220;48.168;14.024;2023-07-13T15:25:24;27.40;52.10
38436;DHT22;24220;48.168;14.024;2023-07-13T15:27:56;27.30;51.40
38436;DHT22;24220;48.168;14.024;2023-07-13T15:30:29;27.40;52.30
38436;DHT22;24220;48.168;14.024;2023-07-13T15:33:01;27.40;51.10
38436;DHT22;24220;48.168;14.024;2023-07-13T15:35:33;27.30;51.70
38436;DHT22;24220;48.168;14.024;2023-07-13T15:38:01;27.40;51.40
38436;DHT22;24220;48.168;14.024;2023-07-13T15:40:30;27.30;51.70
38436;DHT22;24220;48.168;14.024;2023-07-13T15:42:57;27.30;51.40
38436;DHT22;24220;48.168;14.024;2023-07-13T15:45:29;27.30;51.70
38436;DHT22;24220;48.168;14.024;2023-07-13T15:47:58;27.30;51.70
38436;DHT22;24220;48.168;14.024;2023-07-13T15:50:25;27.30;50.90
38436;DHT22;24220;48.168;14.024;2023-07-13T15:52:55;27.30;51.10
38436;DHT22;24220;48.168;14.024;2023-07-13T15:55:23;27.30;50.50
38436;DHT22;24220;48.168;14.024;2023-07-13T15:57:52;27.30;50.40
38436;DHT22;24220;48.168;14.024;2023-07-13T16:00:26;27.30;51.00
38436;DHT22;24220;48.168;14.024;2023-07-13T16:02:54;27.30;51.40
38436;DHT22;24220;48.168;14.024;2023-07-13T16:05:26;27.30;50.40
38436;DHT22;24220;48.168;14.024;2023-07-13T16:07:54;27.30;50.80
38436;DHT22;24220;48.168;14.024;2023-07-13T16:10:37;27.30;50.60
38436;DHT22;24220;48.168;14.024;2023-07-13T16:13:21;27.30;50.20
38436;DHT22;24220;48.168;14.024;2023-07-13T16:15:53;27.30;50.10
38436;DHT22;24220;48.168;14.024;2023-07-13T16:18:23;27.30;50.70
38436;DHT22;24220;48.168;14.024;2023-07-13T16:20:53;27.30;51.40